createdAt,value
2023-01-17T00:01:17.949Z,101530.84
2023-01-17T00:04:02.946Z,101518.56
2023-01-17T00:06:48.155Z,101521.03
2023-01-17T00:09:34.535Z,101527.94
2023-01-17T00:12:05.511Z,101538.31
2023-01-17T00:14:32.188Z,101531.84
2023-01-17T00:17:01.242Z,101527.31
2023-01-17T00:19:46.704Z,101522.16
2023-01-17T00:22:46.723Z,101508.00
2023-01-17T00:25:43.715Z,101509.97
2023-01-17T00:28:10.342Z,101514.13
2023-01-17T00:30:36.918Z,101495.44
2023-01-17T00:33:03.591Z,101517.25
2023-01-17T00:35:32.270Z,101511.81
2023-01-17T00:38:05.908Z,101481.94
2023-01-17T00:40:33.730Z,101514.13
2023-01-17T00:43:19.010Z,101512.06
2023-01-17T00:46:06.256Z,101505.09
2023-01-17T00:48:52.159Z,101513.72
2023-01-17T00:51:38.553Z,101458.78
2023-01-17T00:54:24.148Z,101509.78
2023-01-17T00:57:12.261Z,101507.75
2023-01-17T00:59:58.014Z,101493.72
2023-01-17T01:02:44.453Z,101483.03
2023-01-17T01:05:31.337Z,101499.78
2023-01-17T01:08:16.609Z,101450.19
2023-01-17T01:11:03.639Z,101493.94
2023-01-17T01:13:50.491Z,101504.09
2023-01-17T01:16:37.289Z,101498.88
2023-01-17T01:19:25.392Z,101494.00
2023-01-17T01:22:10.419Z,101494.94
2023-01-17T01:24:55.550Z,101492.28
2023-01-17T01:27:40.783Z,101494.06
2023-01-17T01:30:26.493Z,101499.22
2023-01-17T01:33:11.282Z,101498.47
2023-01-17T01:35:37.921Z,101493.13
2023-01-17T01:38:04.531Z,101499.06
2023-01-17T01:40:31.178Z,101488.59
2023-01-17T01:43:00.053Z,101488.66
2023-01-17T01:45:29.784Z,101483.72
2023-01-17T01:48:00.402Z,101480.47
2023-01-17T01:50:29.163Z,101477.00
2023-01-17T01:53:00.814Z,101466.38
2023-01-17T01:55:33.199Z,101483.72
2023-01-17T01:58:04.562Z,101485.06
2023-01-17T02:00:36.710Z,101480.66
2023-01-17T02:03:08.090Z,101481.66
2023-01-17T02:05:35.578Z,101480.50
2023-01-17T02:08:10.694Z,101490.59
2023-01-17T02:10:39.672Z,101497.47
2023-01-17T02:13:07.716Z,101494.81
2023-01-17T02:16:00.704Z,101495.28
2023-01-17T02:18:27.319Z,101503.88
2023-01-17T02:21:12.708Z,101508.13
2023-01-17T02:23:48.209Z,101506.88
2023-01-17T02:26:21.191Z,101515.28
2023-01-17T02:28:50.492Z,101525.69
2023-01-17T02:31:50.551Z,101516.44
2023-01-17T02:34:28.563Z,101533.03
2023-01-17T02:37:34.731Z,101531.31
2023-01-17T02:40:16.800Z,101524.13
2023-01-17T02:42:50.362Z,101525.97
2023-01-17T02:45:20.953Z,101519.66
2023-01-17T02:47:47.540Z,101518.72
2023-01-17T02:50:31.561Z,101498.47
2023-01-17T02:53:34.481Z,101514.69
2023-01-17T02:56:19.669Z,101508.66
2023-01-17T02:59:01.293Z,101516.13
2023-01-17T03:01:41.604Z,101504.63
2023-01-17T03:04:30.287Z,101502.06
2023-01-17T03:07:13.803Z,101518.34
2023-01-17T03:09:43.587Z,101506.88
2023-01-17T03:12:10.431Z,101510.41
2023-01-17T03:14:37.799Z,101511.94
2023-01-17T03:17:04.691Z,101502.78
2023-01-17T03:19:31.471Z,101521.06
2023-01-17T03:21:58.830Z,101529.41
2023-01-17T03:24:25.398Z,101519.56
2023-01-17T03:26:52.848Z,101513.31
2023-01-17T03:29:19.870Z,101531.75
2023-01-17T03:31:46.800Z,101532.53
2023-01-17T03:34:13.631Z,101530.56
2023-01-17T03:36:40.281Z,101524.41
2023-01-17T03:39:06.886Z,101527.63
2023-01-17T03:41:33.946Z,101527.84
2023-01-17T03:44:01.023Z,101524.69
2023-01-17T03:46:28.759Z,101521.16
2023-01-17T03:48:55.380Z,101525.13
2023-01-17T03:51:22.775Z,101524.72
2023-01-17T03:53:50.125Z,101523.97
2023-01-17T03:56:16.961Z,101530.16
2023-01-17T03:58:43.992Z,101539.69
2023-01-17T04:01:10.979Z,101542.72
2023-01-17T04:03:37.704Z,101548.06
2023-01-17T04:06:05.188Z,101547.66
2023-01-17T04:08:31.840Z,101547.13
2023-01-17T04:10:58.494Z,101540.00
2023-01-17T04:13:25.124Z,101532.88
2023-01-17T04:15:51.930Z,101541.31
2023-01-17T04:18:20.659Z,101543.00
2023-01-17T04:20:47.612Z,101526.19
2023-01-17T04:23:14.229Z,101538.09
2023-01-17T04:25:41.645Z,101540.66
2023-01-17T04:28:09.014Z,101534.72
2023-01-17T20:04:57.293Z,101635.06
2023-01-17T20:07:23.843Z,101610.78
2023-01-17T20:09:50.489Z,101610.72
2023-01-17T20:12:17.096Z,101559.25
2023-01-17T20:14:43.728Z,101613.91
2023-01-17T20:17:10.691Z,101623.06
2023-01-17T20:19:37.276Z,101613.78
2023-01-17T20:22:05.408Z,101598.94
2023-01-17T20:24:33.228Z,101628.06
2023-01-17T20:27:03.177Z,101626.56
2023-01-17T20:29:29.829Z,101615.06
2023-01-17T20:31:56.603Z,101572.25
2023-01-17T20:34:26.500Z,101613.66
2023-01-17T20:36:55.626Z,101622.63
2023-01-17T20:39:22.661Z,101632.25
2023-01-17T20:41:51.519Z,101634.06
2023-01-17T20:44:19.598Z,101617.41
2023-01-17T20:46:47.845Z,101621.66
2023-01-17T20:49:17.356Z,101658.44
2023-01-17T20:51:45.241Z,101605.88
2023-01-17T20:54:15.099Z,101644.66
2023-01-17T20:56:42.797Z,101644.75
2023-01-17T20:59:12.822Z,101643.00
2023-01-17T21:01:39.591Z,101593.09
2023-01-17T21:04:10.181Z,101627.44
2023-01-17T21:06:39.753Z,101642.25
2023-01-17T21:09:07.421Z,101649.16
2023-01-17T21:11:34.439Z,101636.16
2023-01-17T21:14:01.754Z,101629.91
2023-01-17T21:16:28.751Z,101635.00
2023-01-17T21:18:56.531Z,101630.56
2023-01-17T21:21:25.579Z,101644.66
2023-01-17T21:23:54.576Z,101633.44
2023-01-17T21:26:22.681Z,101547.31
2023-01-17T21:28:50.153Z,101614.09
2023-01-17T21:31:25.284Z,101604.41
2023-01-17T21:33:53.571Z,101617.78
2023-01-17T21:36:21.798Z,101609.94
2023-01-17T21:38:52.221Z,101599.34
2023-01-17T21:41:20.974Z,101615.41
2023-01-17T21:43:48.394Z,101557.34
2023-01-17T21:46:15.211Z,101611.22
2023-01-17T21:48:41.900Z,101585.81
2023-01-17T21:51:09.358Z,101591.25
2023-01-17T21:53:38.152Z,101615.81
2023-01-17T21:56:26.010Z,101607.16
2023-01-17T21:58:58.038Z,101611.53
2023-01-17T22:01:27.579Z,101610.63
2023-01-17T22:04:00.142Z,101588.81
2023-01-17T22:06:32.133Z,101581.00
2023-01-17T22:08:59.171Z,101601.16
2023-01-17T22:11:27.638Z,101590.59
2023-01-17T22:13:54.372Z,101580.72
2023-01-17T22:16:24.016Z,101591.97
2023-01-17T22:18:51.476Z,101557.72
2023-01-17T22:21:26.217Z,101588.28
2023-01-17T22:23:57.807Z,101585.53
2023-01-17T22:26:27.896Z,101590.59
2023-01-17T22:28:54.989Z,101568.69
2023-01-17T22:31:27.397Z,101579.13
2023-01-17T22:34:02.377Z,101496.09
2023-01-17T22:36:33.514Z,101560.44
2023-01-17T22:39:00.500Z,101578.59
2023-01-17T22:41:33.775Z,101586.44
2023-01-17T22:44:06.336Z,101573.97
2023-01-17T22:46:35.845Z,101575.31
2023-01-17T22:49:03.077Z,101595.81
2023-01-17T22:51:31.409Z,101600.72
2023-01-17T22:53:59.967Z,101581.94
2023-01-17T22:56:31.848Z,101588.69
2023-01-17T22:59:00.887Z,101598.91
2023-01-17T23:01:29.760Z,101589.06
2023-01-17T23:04:07.917Z,101598.41
2023-01-17T23:06:40.572Z,101573.28
2023-01-17T23:09:11.443Z,101586.25
2023-01-17T23:11:42.468Z,101600.94
2023-01-17T23:14:27.351Z,101599.88
2023-01-17T23:17:13.565Z,101605.63
2023-01-17T23:19:44.060Z,101603.06
2023-01-17T23:22:19.046Z,101590.56
2023-01-17T23:24:47.431Z,101593.75
2023-01-17T23:27:35.915Z,101583.72
2023-01-17T23:30:05.610Z,101581.31
2023-01-17T23:32:32.223Z,101608.13
2023-01-17T23:34:58.866Z,101600.09
2023-01-17T23:37:48.437Z,101603.63
2023-01-17T23:40:15.557Z,101574.47
2023-01-17T23:43:02.405Z,101578.97
2023-01-17T23:45:29.040Z,101590.13
2023-01-17T23:47:55.677Z,101600.69
2023-01-17T23:50:22.667Z,101589.41
2023-01-17T23:52:49.244Z,101601.56
2023-01-17T23:55:15.912Z,101592.00
2023-01-17T23:57:42.605Z,101589.94
